sensor_id;sensor_type;location;lat;lon;timestamp;pressure;altitude;pressure_sealevel;temperature;humidity
79347;BME280;68815;48.810;44.482;2023-05-07T00:02:06;100935;;;11.7;58.7
79347;BME280;68815;48.810;44.482;2023-05-07T00:05:08;100939;;;11.6;59.1
79347;BME280;68815;48.810;44.482;2023-05-07T00:08:09;100954;;;11.6;59.6
79347;BME280;68815;48.810;44.482;2023-05-07T00:11:11;100952;;;11.5;60.4
79347;BME280;68815;48.810;44.482;2023-05-07T00:14:12;100946;;;11.5;60.6
79347;BME280;68815;48.810;44.482;2023-05-07T00:17:13;100953;;;11.5;60.4
79347;BME280;68815;48.810;44.482;2023-05-07T00:20:15;100948;;;11.4;60.3
79347;BME280;68815;48.810;44.482;2023-05-07T00:23:16;100947;;;11.4;59.9
79347;BME280;68815;48.810;44.482;2023-05-07T00:26:18;100944;;;11.4;60
79347;BME280;68815;48.810;44.482;2023-05-07T00:29:19;100940;;;11.5;59.1
79347;BME280;68815;48.810;44.482;2023-05-07T00:32:20;100939;;;11.3;59.2
79347;BME280;68815;48.810;44.482;2023-05-07T00:35:22;100943;;;11.4;58.8
79347;BME280;68815;48.810;44.482;2023-05-07T00:38:23;100934;;;11.4;58.5
79347;BME280;68815;48.810;44.482;2023-05-07T00:41:25;100943;;;11.4;58.5
79347;BME280;68815;48.810;44.482;2023-05-07T00:44:26;100948;;;11.4;58.5
79347;BME280;68815;48.810;44.482;2023-05-07T00:47:28;100949;;;11.4;58.8
79347;BME280;68815;48.810;44.482;2023-05-07T00:50:30;100955;;;11.5;58.4
79347;BME280;68815;48.810;44.482;2023-05-07T00:53:32;100960;;;11.5;58.3
79347;BME280;68815;48.810;44.482;2023-05-07T00:56:34;100963;;;11.6;57.9
79347;BME280;68815;48.810;44.482;2023-05-07T00:59:35;100958;;;11.6;58.3
79347;BME280;68815;48.810;44.482;2023-05-07T01:02:37;100971;;;11.5;58.4
79347;BME280;68815;48.810;44.482;2023-05-07T01:05:39;100970;;;11.5;58.5
79347;BME280;68815;48.810;44.482;2023-05-07T01:08:41;100976;;;11.5;58.6
79347;BME280;68815;48.810;44.482;2023-05-07T01:11:43;100981;;;11.5;58.7
79347;BME280;68815;48.810;44.482;2023-05-07T01:14:44;100983;;;11.6;58.4
79347;BME280;68815;48.810;44.482;2023-05-07T01:17:46;100986;;;11.6;58.4
79347;BME280;68815;48.810;44.482;2023-05-07T01:20:48;100982;;;11.5;59
79347;BME280;68815;48.810;44.482;2023-05-07T01:23:49;100984;;;11.5;59
79347;BME280;68815;48.810;44.482;2023-05-07T01:26:50;100983;;;11.4;59.3
79347;BME280;68815;48.810;44.482;2023-05-07T01:29:52;100985;;;11.4;59.6
79347;BME280;68815;48.810;44.482;2023-05-07T01:32:58;100990;;;11.4;59.8
79347;BME280;68815;48.810;44.482;2023-05-07T01:36:04;100989;;;11.4;60
79347;BME280;68815;48.810;44.482;2023-05-07T01:39:06;100990;;;11.3;60.5
79347;BME280;68815;48.810;44.482;2023-05-07T01:42:08;100985;;;11.4;60.1
79347;BME280;68815;48.810;44.482;2023-05-07T01:45:10;100992;;;11.5;60
79347;BME280;68815;48.810;44.482;2023-05-07T01:48:13;100992;;;11.4;60.2
79347;BME280;68815;48.810;44.482;2023-05-07T01:51:15;100986;;;11.3;60.2
79347;BME280;68815;48.810;44.482;2023-05-07T01:54:17;100981;;;11.2;60.8
79347;BME280;68815;48.810;44.482;2023-05-07T01:57:18;100984;;;11.4;61
79347;BME280;68815;48.810;44.482;2023-05-07T02:00:20;100976;;;11.3;61.2
79347;BME280;68815;48.810;44.482;2023-05-07T02:03:21;100970;;;11.2;61.1
79347;BME280;68815;48.810;44.482;2023-05-07T02:06:23;100961;;;11.2;61.4
79347;BME280;68815;48.810;44.482;2023-05-07T02:09:24;100960;;;11.2;61
79347;BME280;68815;48.810;44.482;2023-05-07T02:12:25;100969;;;11.2;61.1
79347;BME280;68815;48.810;44.482;2023-05-07T02:15:27;100978;;;11.1;61.1
79347;BME280;68815;48.810;44.482;2023-05-07T02:18:29;100988;;;11.1;61
79347;BME280;68815;48.810;44.482;2023-05-07T02:21:30;100994;;;11.1;61
79347;BME280;68815;48.810;44.482;2023-05-07T02:24:32;100997;;;11.1;61.1
79347;BME280;68815;48.810;44.482;2023-05-07T02:27:33;101006;;;11.1;61
79347;BME280;68815;48.810;44.482;2023-05-07T02:30:35;101011;;;11.2;60.9
79347;BME280;68815;48.810;44.482;2023-05-07T02:33:37;101019;;;11.3;60.8
79347;BME280;68815;48.810;44.482;2023-05-07T02:36:39;101027;;;11.1;61.2
79347;BME280;68815;48.810;44.482;2023-05-07T02:39:40;101027;;;11.1;61.6
79347;BME280;68815;48.810;44.482;2023-05-07T02:42:42;101036;;;11;61.8
79347;BME280;68815;48.810;44.482;2023-05-07T02:45:43;101038;;;11;62.2
79347;BME280;68815;48.810;44.482;2023-05-07T02:48:45;101042;;;11;62.4
79347;BME280;68815;48.810;44.482;2023-05-07T02:51:46;101039;;;11.1;62.4
79347;BME280;68815;48.810;44.482;2023-05-07T02:54:47;101044;;;11;62.7
79347;BME280;68815;48.810;44.482;2023-05-07T02:57:49;101059;;;11.1;61.9
79347;BME280;68815;48.810;44.482;2023-05-07T03:00:50;101052;;;11;61.6
79347;BME280;68815;48.810;44.482;2023-05-07T03:03:52;101054;;;10.9;61
79347;BME280;68815;48.810;44.482;2023-05-07T03:06:53;101041;;;10.9;61.4
79347;BME280;68815;48.810;44.482;2023-05-07T03:09:55;101036;;;10.9;61.6
79347;BME280;68815;48.810;44.482;2023-05-07T03:12:56;101036;;;10.9;60.7
79347;BME280;68815;48.810;44.482;2023-05-07T03:15:58;101033;;;10.9;61.3
79347;BME280;68815;48.810;44.482;2023-05-07T03:18:59;101043;;;10.9;61.1
79347;BME280;68815;48.810;44.482;2023-05-07T03:22:01;101059;;;10.9;61
79347;BME280;68815;48.810;44.482;2023-05-07T03:25:02;101066;;;11;61.3
79347;BME280;68815;48.810;44.482;2023-05-07T03:28:10;101081;;;11;61.1
79347;BME280;68815;48.810;44.482;2023-05-07T03:31:12;101081;;;10.8;61.8
79347;BME280;68815;48.810;44.482;2023-05-07T03:34:13;101070;;;10.9;61
79347;BME280;68815;48.810;44.482;2023-05-07T03:37:15;101068;;;10.9;61.4
79347;BME280;68815;48.810;44.482;2023-05-07T03:40:16;101073;;;10.8;60.9
79347;BME280;68815;48.810;44.482;2023-05-07T03:43:18;101076;;;10.9;61
79347;BME280;68815;48.810;44.482;2023-05-07T03:46:19;101078;;;10.7;61.6
79347;BME280;68815;48.810;44.482;2023-05-07T03:49:21;101089;;;10.8;61.5
79347;BME280;68815;48.810;44.482;2023-05-07T03:52:23;101097;;;11;60.9
79347;BME280;68815;48.810;44.482;2023-05-07T03:55:24;101104;;;11.1;60.6
79347;BME280;68815;48.810;44.482;2023-05-07T03:58:26;101114;;;11;60.4
79347;BME280;68815;48.810;44.482;2023-05-07T04:01:27;101114;;;10.8;61.2
79347;BME280;68815;48.810;44.482;2023-05-07T04:04:29;101111;;;10.7;61.2
79347;BME280;68815;48.810;44.482;2023-05-07T04:07:30;101116;;;10.8;61
79347;BME280;68815;48.810;44.482;2023-05-07T04:10:32;101127;;;10.8;61.3
79347;BME280;68815;48.810;44.482;2023-05-07T04:13:34;101128;;;10.7;61
79347;BME280;68815;48.810;44.482;2023-05-07T04:16:35;101133;;;10.6;61.1
79347;BME280;68815;48.810;44.482;2023-05-07T04:19:36;101126;;;10.7;60.5
79347;BME280;68815;48.810;44.482;2023-05-07T04:22:38;101122;;;10.7;61.2
79347;BME280;68815;48.810;44.482;2023-05-07T04:25:39;101114;;;10.6;61.1
79347;BME280;68815;48.810;44.482;2023-05-07T04:28:41;101115;;;10.7;60.8
79347;BME280;68815;48.810;44.482;2023-05-07T04:31:43;101118;;;10.6;60.6
79347;BME280;68815;48.810;44.482;2023-05-07T04:34:44;101119;;;10.8;60.6
79347;BME280;68815;48.810;44.482;2023-05-07T04:37:45;101116;;;10.7;59.9
79347;BME280;68815;48.810;44.482;2023-05-07T04:40:47;101123;;;10.6;60.7
79347;BME280;68815;48.810;44.482;2023-05-07T04:43:48;101129;;;10.6;60.6
79347;BME280;68815;48.810;44.482;2023-05-07T04:46:50;101136;;;10.8;60.4
79347;BME280;68815;48.810;44.482;2023-05-07T04:49:51;101146;;;10.8;60.2
79347;BME280;68815;48.810;44.482;2023-05-07T04:52:52;101133;;;11;60
79347;BME280;68815;48.810;44.482;2023-05-07T04:55:55;101136;;;10.9;60
79347;BME280;68815;48.810;44.482;2023-05-07T04:58:57;101140;;;10.9;59.9
79347;BME280;68815;48.810;44.482;2023-05-07T05:01:58;101141;;;10.9;60
79347;BME280;68815;48.810;44.482;2023-05-07T05:04:59;101144;;;10.9;59.9
79347;BME280;68815;48.810;44.482;2023-05-07T05:08:01;101133;;;10.8;60
79347;BME280;68815;48.810;44.482;2023-05-07T05:11:02;101134;;;10.8;60.8
79347;BME280;68815;48.810;44.482;2023-05-07T05:14:04;101120;;;10.8;60.7
79347;BME280;68815;48.810;44.482;2023-05-07T05:17:05;101133;;;10.9;60.1
79347;BME280;68815;48.810;44.482;2023-05-07T05:20:07;101109;;;10.9;59.2
79347;BME280;68815;48.810;44.482;2023-05-07T05:23:08;101101;;;10.9;59
79347;BME280;68815;48.810;44.482;2023-05-07T05:26:10;101106;;;11;59.1
79347;BME280;68815;48.810;44.482;2023-05-07T05:29:12;101118;;;11.1;59.1
79347;BME280;68815;48.810;44.482;2023-05-07T05:32:13;101111;;;11.2;59
79347;BME280;68815;48.810;44.482;2023-05-07T05:35:15;101114;;;11.3;58.7
79347;BME280;68815;48.810;44.482;2023-05-07T05:38:16;101097;;;11.4;57.9
79347;BME280;68815;48.810;44.482;2023-05-07T05:41:18;101106;;;11.8;56.8
79347;BME280;68815;48.810;44.482;2023-05-07T05:44:19;101107;;;11.9;55.7
79347;BME280;68815;48.810;44.482;2023-05-07T05:47:21;101117;;;12;54.9
79347;BME280;68815;48.810;44.482;2023-05-07T05:50:23;101111;;;12.2;53.9
79347;BME280;68815;48.810;44.482;2023-05-07T05:53:25;101119;;;12.3;54.4
79347;BME280;68815;48.810;44.482;2023-05-07T05:56:26;101112;;;13.5;50.7
79347;BME280;68815;48.810;44.482;2023-05-07T05:59:28;101110;;;13;52
79347;BME280;68815;48.810;44.482;2023-05-07T06:02:29;101113;;;13.2;51.8
79347;BME280;68815;48.810;44.482;2023-05-07T06:05:30;101135;;;13.4;51
79347;BME280;68815;48.810;44.482;2023-05-07T06:08:32;101122;;;13.7;50.6
79347;BME280;68815;48.810;44.482;2023-05-07T06:11:33;101142;;;14;50
79347;BME280;68815;48.810;44.482;2023-05-07T06:14:35;101154;;;13.4;51.6
79347;BME280;68815;48.810;44.482;2023-05-07T06:17:36;101154;;;13.5;50.6
79347;BME280;68815;48.810;44.482;2023-05-07T06:20:37;101151;;;12.9;52.5
79347;BME280;68815;48.810;44.482;2023-05-07T06:23:39;101134;;;13.4;51.7
79347;BME280;68815;48.810;44.482;2023-05-07T06:26:40;101159;;;13.4;50.4
79347;BME280;68815;48.810;44.482;2023-05-07T06:29:41;101159;;;13.3;51.3
79347;BME280;68815;48.810;44.482;2023-05-07T06:32:44;101139;;;13.3;51.2
79347;BME280;68815;48.810;44.482;2023-05-07T06:35:45;101144;;;13.1;51.5
79347;BME280;68815;48.810;44.482;2023-05-07T06:38:46;101146;;;12.9;51.2
79347;BME280;68815;48.810;44.482;2023-05-07T06:41:48;101145;;;12.6;51.6
79347;BME280;68815;48.810;44.482;2023-05-07T06:44:49;101144;;;12.5;52.1
79347;BME280;68815;48.810;44.482;2023-05-07T06:47:51;101146;;;12.6;51.6
79347;BME280;68815;48.810;44.482;2023-05-07T06:50:53;101149;;;12.6;51.9
79347;BME280;68815;48.810;44.482;2023-05-07T06:53:54;101126;;;12.8;51.5
79347;BME280;68815;48.810;44.482;2023-05-07T06:56:55;101130;;;12.9;51
79347;BME280;68815;48.810;44.482;2023-05-07T06:59:57;101115;;;13.2;50.4
79347;BME280;68815;48.810;44.482;2023-05-07T07:02:58;101120;;;13.4;50.5
79347;BME280;68815;48.810;44.482;2023-05-07T07:06:00;101124;;;14.1;48.7
79347;BME280;68815;48.810;44.482;2023-05-07T07:09:01;101114;;;14.1;48.3
79347;BME280;68815;48.810;44.482;2023-05-07T07:12:03;101109;;;14.2;48.6
79347;BME280;68815;48.810;44.482;2023-05-07T07:15:05;101120;;;14.4;45.9
79347;BME280;68815;48.810;44.482;2023-05-07T07:18:07;101146;;;14.3;45.9
79347;BME280;68815;48.810;44.482;2023-05-07T07:21:08;101117;;;14.2;45.8
79347;BME280;68815;48.810;44.482;2023-05-07T07:24:10;101110;;;14.2;45.9
79347;BME280;68815;48.810;44.482;2023-05-07T07:27:11;101098;;;13.9;46.4
79347;BME280;68815;48.810;44.482;2023-05-07T07:30:13;101087;;;14.6;45.3
79347;BME280;68815;48.810;44.482;2023-05-07T07:33:15;101097;;;14.7;45.8
79347;BME280;68815;48.810;44.482;2023-05-07T07:36:16;101102;;;14.4;45.2
79347;BME280;68815;48.810;44.482;2023-05-07T07:39:18;101098;;;14.6;46
79347;BME280;68815;48.810;44.482;2023-05-07T07:42:19;101114;;;14.6;43.8
79347;BME280;68815;48.810;44.482;2023-05-07T07:45:21;101123;;;14.3;44.6
79347;BME280;68815;48.810;44.482;2023-05-07T07:48:23;101117;;;14;44
79347;BME280;68815;48.810;44.482;2023-05-07T07:51:24;101120;;;13.8;45
79347;BME280;68815;48.810;44.482;2023-05-07T07:54:25;101128;;;13.9;44.3
79347;BME280;68815;48.810;44.482;2023-05-07T07:57:27;101140;;;14;45.3
79347;BME280;68815;48.810;44.482;2023-05-07T08:00:28;101138;;;13.8;45.3
79347;BME280;68815;48.810;44.482;2023-05-07T08:03:30;101135;;;14;45.9
79347;BME280;68815;48.810;44.482;2023-05-07T08:06:31;101135;;;14.1;45.3
79347;BME280;68815;48.810;44.482;2023-05-07T08:09:32;101149;;;14.3;45.5
79347;BME280;68815;48.810;44.482;2023-05-07T08:12:34;101142;;;14.2;44.5
79347;BME280;68815;48.810;44.482;2023-05-07T08:15:36;101150;;;14.1;44.5
79347;BME280;68815;48.810;44.482;2023-05-07T08:18:37;101145;;;14.1;44.5
79347;BME280;68815;48.810;44.482;2023-05-07T08:21:39;101151;;;13.9;44.6
79347;BME280;68815;48.810;44.482;2023-05-07T08:24:41;101144;;;13.9;45.2
79347;BME280;68815;48.810;44.482;2023-05-07T08:27:42;101130;;;13.9;45.7
79347;BME280;68815;48.810;44.482;2023-05-07T08:30:43;101165;;;13.8;45.2
79347;BME280;68815;48.810;44.482;2023-05-07T08:33:45;101140;;;13.7;46.1
79347;BME280;68815;48.810;44.482;2023-05-07T08:36:47;101144;;;13.7;45.6
79347;BME280;68815;48.810;44.482;2023-05-07T08:39:48;101150;;;13.7;46.1
79347;BME280;68815;48.810;44.482;2023-05-07T08:42:51;101149;;;13.7;45.8
79347;BME280;68815;48.810;44.482;2023-05-07T08:45:53;101150;;;13.7;44.7
79347;BME280;68815;48.810;44.482;2023-05-07T08:48:55;101152;;;13.6;44.9
79347;BME280;68815;48.810;44.482;2023-05-07T08:51:56;101147;;;13.7;45.7
79347;BME280;68815;48.810;44.482;2023-05-07T08:54:59;101141;;;13.6;45.3
79347;BME280;68815;48.810;44.482;2023-05-07T08:58:00;101151;;;13.6;45.2
79347;BME280;68815;48.810;44.482;2023-05-07T09:01:03;101158;;;13.7;45.3
79347;BME280;68815;48.810;44.482;2023-05-07T09:04:08;101150;;;13.7;45.6
79347;BME280;68815;48.810;44.482;2023-05-07T09:07:10;101149;;;13.7;44.8
79347;BME280;68815;48.810;44.482;2023-05-07T09:10:12;101157;;;13.6;45.2
79347;BME280;68815;48.810;44.482;2023-05-07T09:13:14;101144;;;13.5;45
79347;BME280;68815;48.810;44.482;2023-05-07T09:19:44;101142;;;13.4;45.1
79347;BME280;68815;48.810;44.482;2023-05-07T09:22:45;101140;;;13.4;45.4
79347;BME280;68815;48.810;44.482;2023-05-07T09:25:47;101146;;;13.4;46
79347;BME280;68815;48.810;44.482;2023-05-07T09:28:48;101133;;;13.5;46.1
79347;BME280;68815;48.810;44.482;2023-05-07T09:31:50;101128;;;13.5;45.2
79347;BME280;68815;48.810;44.482;2023-05-07T09:34:51;101130;;;13.4;45.1
79347;BME280;68815;48.810;44.482;2023-05-07T09:41:25;101127;;;13.5;45.4
79347;BME280;68815;48.810;44.482;2023-05-07T09:47:58;101127;;;13.5;45.2
79347;BME280;68815;48.810;44.482;2023-05-07T09:51:02;101131;;;13.6;45.3
79347;BME280;68815;48.810;44.482;2023-05-07T09:54:04;101127;;;13.7;45
79347;BME280;68815;48.810;44.482;2023-05-07T09:57:07;101137;;;13.8;45.2
79347;BME280;68815;48.810;44.482;2023-05-07T10:00:10;101140;;;13.9;45.8
79347;BME280;68815;48.810;44.482;2023-05-07T10:03:12;101143;;;13.9;45.2
79347;BME280;68815;48.810;44.482;2023-05-07T10:06:14;101148;;;14;45
79347;BME280;68815;48.810;44.482;2023-05-07T10:09:16;101122;;;14;44.8
79347;BME280;68815;48.810;44.482;2023-05-07T10:12:18;101127;;;14.1;43.9
79347;BME280;68815;48.810;44.482;2023-05-07T10:15:21;101126;;;14;44.2
79347;BME280;68815;48.810;44.482;2023-05-07T10:18:24;101125;;;14.1;44.4
79347;BME280;68815;48.810;44.482;2023-05-07T10:21:27;101124;;;14.2;44.2
79347;BME280;68815;48.810;44.482;2023-05-07T10:24:32;101127;;;14.2;44.4
79347;BME280;68815;48.810;44.482;2023-05-07T10:27:34;101131;;;14.1;44.5
79347;BME280;68815;48.810;44.482;2023-05-07T10:30:44;101125;;;14.2;44.3
79347;BME280;68815;48.810;44.482;2023-05-07T10:33:51;101135;;;14.1;44.8
79347;BME280;68815;48.810;44.482;2023-05-07T10:36:55;101136;;;14.1;44.6
79347;BME280;68815;48.810;44.482;2023-05-07T10:39:57;101137;;;14;44.7
79347;BME280;68815;48.810;44.482;2023-05-07T10:43:00;101142;;;14;44.3
79347;BME280;68815;48.810;44.482;2023-05-07T10:46:17;101135;;;13.7;44.7
79347;BME280;68815;48.810;44.482;2023-05-07T10:49:19;101139;;;13.8;44.6
79347;BME280;68815;48.810;44.482;2023-05-07T10:52:22;101139;;;13.8;44.8
79347;BME280;68815;48.810;44.482;2023-05-07T10:55:24;101141;;;13.7;45.4
79347;BME280;68815;48.810;44.482;2023-05-07T10:58:27;101144;;;13.7;45.2
79347;BME280;68815;48.810;44.482;2023-05-07T11:01:53;101138;;;13.7;44.4
79347;BME280;68815;48.810;44.482;2023-05-07T11:08:21;101128;;;13.7;44.8
79347;BME280;68815;48.810;44.482;2023-05-07T11:15:00;101125;;;13.6;45.2
79347;BME280;68815;48.810;44.482;2023-05-07T11:18:01;101126;;;13.6;44.6
79347;BME280;68815;48.810;44.482;2023-05-07T11:21:03;101121;;;13.6;45.3
79347;BME280;68815;48.810;44.482;2023-05-07T11:24:06;101135;;;13.6;45.3
79347;BME280;68815;48.810;44.482;2023-05-07T11:27:08;101122;;;13.5;44.6
79347;BME280;68815;48.810;44.482;2023-05-07T11:30:17;101118;;;13.5;44.3
79347;BME280;68815;48.810;44.482;2023-05-07T11:33:18;101126;;;13.6;44.7
79347;BME280;68815;48.810;44.482;2023-05-07T11:36:22;101112;;;13.6;44.8
79347;BME280;68815;48.810;44.482;2023-05-07T11:39:24;101107;;;13.7;45.4
79347;BME280;68815;48.810;44.482;2023-05-07T11:42:27;101104;;;13.6;45.3
79347;BME280;68815;48.810;44.482;2023-05-07T11:45:28;101104;;;13.6;45.3
79347;BME280;68815;48.810;44.482;2023-05-07T11:48:30;101100;;;13.6;45.6
79347;BME280;68815;48.810;44.482;2023-05-07T11:51:31;101099;;;13.6;47.4
79347;BME280;68815;48.810;44.482;2023-05-07T11:54:35;101093;;;13.5;47.3
79347;BME280;68815;48.810;44.482;2023-05-07T11:57:36;101101;;;13.4;49.1
79347;BME280;68815;48.810;44.482;2023-05-07T12:00:38;101097;;;13.3;50.4
79347;BME280;68815;48.810;44.482;2023-05-07T12:03:41;101088;;;13.2;50.3
79347;BME280;68815;48.810;44.482;2023-05-07T12:06:42;101089;;;13.3;50.9
79347;BME280;68815;48.810;44.482;2023-05-07T12:09:44;101094;;;13.3;50
79347;BME280;68815;48.810;44.482;2023-05-07T12:12:46;101093;;;13.2;50.3
79347;BME280;68815;48.810;44.482;2023-05-07T12:15:50;101094;;;13.2;50.5
79347;BME280;68815;48.810;44.482;2023-05-07T12:18:53;101101;;;13.1;49
79347;BME280;68815;48.810;44.482;2023-05-07T12:21:55;101099;;;13.2;49.7
79347;BME280;68815;48.810;44.482;2023-05-07T12:24:58;101102;;;13.2;48.6
79347;BME280;68815;48.810;44.482;2023-05-07T12:28:00;101099;;;13.2;49.3
79347;BME280;68815;48.810;44.482;2023-05-07T12:31:02;101099;;;13.2;48.5
79347;BME280;68815;48.810;44.482;2023-05-07T12:34:04;101101;;;13.2;48.8
79347;BME280;68815;48.810;44.482;2023-05-07T12:37:06;101094;;;13.3;49.4
79347;BME280;68815;48.810;44.482;2023-05-07T12:40:09;101093;;;13.3;49.1
79347;BME280;68815;48.810;44.482;2023-05-07T12:43:15;101100;;;13.3;48.6
79347;BME280;68815;48.810;44.482;2023-05-07T12:46:17;101102;;;13.2;49.3
79347;BME280;68815;48.810;44.482;2023-05-07T12:49:18;101105;;;13.2;48.3
79347;BME280;68815;48.810;44.482;2023-05-07T12:52:20;101111;;;13.2;48.9
79347;BME280;68815;48.810;44.482;2023-05-07T12:55:21;101112;;;13.2;49.4
79347;BME280;68815;48.810;44.482;2023-05-07T12:58:24;101108;;;13.2;49.6
79347;BME280;68815;48.810;44.482;2023-05-07T13:01:29;101110;;;13.1;50.1
79347;BME280;68815;48.810;44.482;2023-05-07T13:04:31;101112;;;13.2;50.7
79347;BME280;68815;48.810;44.482;2023-05-07T13:07:33;101120;;;13.1;50.3
79347;BME280;68815;48.810;44.482;2023-05-07T13:10:34;101116;;;13;51
79347;BME280;68815;48.810;44.482;2023-05-07T13:13:37;101121;;;13;52
79347;BME280;68815;48.810;44.482;2023-05-07T13:16:39;101122;;;12.9;52.7
79347;BME280;68815;48.810;44.482;2023-05-07T13:19:41;101128;;;13;53.2
79347;BME280;68815;48.810;44.482;2023-05-07T13:22:42;101121;;;12.9;53.2
79347;BME280;68815;48.810;44.482;2023-05-07T13:25:43;101123;;;12.9;54.3
79347;BME280;68815;48.810;44.482;2023-05-07T13:28:45;101118;;;12.7;54.7
79347;BME280;68815;48.810;44.482;2023-05-07T13:31:46;101125;;;12.8;53.8
79347;BME280;68815;48.810;44.482;2023-05-07T13:34:47;101121;;;12.7;54.8
79347;BME280;68815;48.810;44.482;2023-05-07T13:37:49;101124;;;12.6;55.7
79347;BME280;68815;48.810;44.482;2023-05-07T13:40:50;101132;;;12.4;56.1
79347;BME280;68815;48.810;44.482;2023-05-07T13:43:52;101125;;;12.4;55.9
79347;BME280;68815;48.810;44.482;2023-05-07T13:46:55;101128;;;12.4;56.1
79347;BME280;68815;48.810;44.482;2023-05-07T13:50:02;101125;;;12.5;55.9
79347;BME280;68815;48.810;44.482;2023-05-07T13:53:07;101125;;;12.4;56.6
79347;BME280;68815;48.810;44.482;2023-05-07T13:56:08;101126;;;12.3;56.2
79347;BME280;68815;48.810;44.482;2023-05-07T13:59:10;101133;;;12.2;57
79347;BME280;68815;48.810;44.482;2023-05-07T14:02:11;101130;;;12.1;57
79347;BME280;68815;48.810;44.482;2023-05-07T14:05:13;101134;;;12.1;57.8
79347;BME280;68815;48.810;44.482;2023-05-07T14:08:14;101137;;;12.1;59.4
79347;BME280;68815;48.810;44.482;2023-05-07T14:11:16;101131;;;11.9;59.6
79347;BME280;68815;48.810;44.482;2023-05-07T14:14:17;101137;;;11.8;59.8
79347;BME280;68815;48.810;44.482;2023-05-07T14:17:18;101142;;;11.8;60.5
79347;BME280;68815;48.810;44.482;2023-05-07T14:20:20;101144;;;11.7;60.7
79347;BME280;68815;48.810;44.482;2023-05-07T14:23:22;101143;;;11.6;60.5
79347;BME280;68815;48.810;44.482;2023-05-07T14:26:23;101142;;;11.6;61.1
79347;BME280;68815;48.810;44.482;2023-05-07T14:29:25;101143;;;11.6;62.2
79347;BME280;68815;48.810;44.482;2023-05-07T14:32:26;101152;;;11.6;63.6
79347;BME280;68815;48.810;44.482;2023-05-07T14:35:28;101153;;;11.6;63.5
79347;BME280;68815;48.810;44.482;2023-05-07T14:38:29;101148;;;11.5;63.8
79347;BME280;68815;48.810;44.482;2023-05-07T14:41:32;101153;;;11.4;63.8
79347;BME280;68815;48.810;44.482;2023-05-07T14:44:34;101152;;;11.3;64.5
79347;BME280;68815;48.810;44.482;2023-05-07T14:47:35;101152;;;11.3;64.1
79347;BME280;68815;48.810;44.482;2023-05-07T14:50:37;101154;;;11.4;64.3
79347;BME280;68815;48.810;44.482;2023-05-07T14:53:38;101153;;;11.2;64.4
79347;BME280;68815;48.810;44.482;2023-05-07T14:56:41;101146;;;11.2;64.5
79347;BME280;68815;48.810;44.482;2023-05-07T14:59:43;101148;;;11.1;64.8
79347;BME280;68815;48.810;44.482;2023-05-07T15:02:44;101143;;;11;66.2
79347;BME280;68815;48.810;44.482;2023-05-07T15:05:46;101146;;;11;66.6
79347;BME280;68815;48.810;44.482;2023-05-07T15:08:48;101145;;;10.9;66.6
79347;BME280;68815;48.810;44.482;2023-05-07T15:11:49;101147;;;10.9;67.5
79347;BME280;68815;48.810;44.482;2023-05-07T15:14:51;101149;;;10.9;67.2
79347;BME280;68815;48.810;44.482;2023-05-07T15:17:52;101152;;;10.9;66.6
79347;BME280;68815;48.810;44.482;2023-05-07T15:20:55;101151;;;10.8;66.7
79347;BME280;68815;48.810;44.482;2023-05-07T15:23:56;101144;;;10.7;67.1
79347;BME280;68815;48.810;44.482;2023-05-07T15:26:57;101150;;;10.6;67.2
79347;BME280;68815;48.810;44.482;2023-05-07T15:29:59;101151;;;10.5;67.3
79347;BME280;68815;48.810;44.482;2023-05-07T15:33:01;101147;;;10.4;67.1
79347;BME280;68815;48.810;44.482;2023-05-07T15:36:03;101153;;;10.4;67.4
79347;BME280;68815;48.810;44.482;2023-05-07T15:39:05;101151;;;10.4;68
79347;BME280;68815;48.810;44.482;2023-05-07T15:42:06;101147;;;10.4;66.9
79347;BME280;68815;48.810;44.482;2023-05-07T15:45:09;101157;;;10.4;65.9
79347;BME280;68815;48.810;44.482;2023-05-07T15:48:10;101147;;;10.3;67.8
79347;BME280;68815;48.810;44.482;2023-05-07T15:51:12;101149;;;10.1;68.5
79347;BME280;68815;48.810;44.482;2023-05-07T15:54:14;101145;;;10.1;68.6
79347;BME280;68815;48.810;44.482;2023-05-07T15:57:15;101151;;;10.1;68.9
79347;BME280;68815;48.810;44.482;2023-05-07T16:00:17;101157;;;10.1;69.9
79347;BME280;68815;48.810;44.482;2023-05-07T16:03:19;101155;;;10.1;70.3
79347;BME280;68815;48.810;44.482;2023-05-07T16:06:20;101172;;;10;70.2
79347;BME280;68815;48.810;44.482;2023-05-07T16:09:22;101164;;;10;70.6
79347;BME280;68815;48.810;44.482;2023-05-07T16:12:23;101169;;;10;71.4
79347;BME280;68815;48.810;44.482;2023-05-07T16:15:25;101177;;;9.9;70.9
79347;BME280;68815;48.810;44.482;2023-05-07T16:18:27;101184;;;9.9;71.2
79347;BME280;68815;48.810;44.482;2023-05-07T16:21:28;101191;;;9.8;71.8
79347;BME280;68815;48.810;44.482;2023-05-07T16:24:30;101196;;;9.8;71.8
79347;BME280;68815;48.810;44.482;2023-05-07T16:27:31;101200;;;9.8;73.1
79347;BME280;68815;48.810;44.482;2023-05-07T16:30:33;101207;;;9.9;72.6
79347;BME280;68815;48.810;44.482;2023-05-07T16:33:34;101202;;;9.9;72.2
79347;BME280;68815;48.810;44.482;2023-05-07T16:36:35;101207;;;9.9;72.9
79347;BME280;68815;48.810;44.482;2023-05-07T16:39:37;101209;;;9.8;72.6
79347;BME280;68815;48.810;44.482;2023-05-07T16:42:38;101211;;;9.8;72.7
79347;BME280;68815;48.810;44.482;2023-05-07T16:45:40;101210;;;9.9;73.2
79347;BME280;68815;48.810;44.482;2023-05-07T16:48:41;101208;;;9.9;73.3
79347;BME280;68815;48.810;44.482;2023-05-07T16:51:43;101205;;;9.9;73.6
79347;BME280;68815;48.810;44.482;2023-05-07T16:54:45;101204;;;9.8;73.6
79347;BME280;68815;48.810;44.482;2023-05-07T16:57:46;101198;;;9.9;73.6
79347;BME280;68815;48.810;44.482;2023-05-07T17:00:48;101187;;;10;70.9
79347;BME280;68815;48.810;44.482;2023-05-07T17:03:50;101178;;;9.8;71.2
79347;BME280;68815;48.810;44.482;2023-05-07T17:06:51;101172;;;9.9;71.6
79347;BME280;68815;48.810;44.482;2023-05-07T17:09:53;101169;;;9.8;71.4